Time;durP1;ratioP1;P1;durP2;ratioP2;P2;SDS_P1;SDS_P2;PMS_P1;PMS_P2;Temp;Humidity;BMP_temperature;BMP_pressure;BME280_temperature;BME280_humidity;BME280_pressure;Samples;Min_cycle;Max_cycle;Signal;HPM_P1;HPM_P2
2023/02/12 00:00:08;;;;;;;37.57;18.77;;;8.30;99.90;;;;;;4921780;29;20575;-71
2023/02/12 00:02:41;;;;;;;33.10;20.40;;;8.30;99.90;;;;;;4938602;29;20493;-71
2023/02/12 00:05:10;;;;;;;30.20;19.97;;;8.30;99.90;;;;;;4906079;29;20435;-71
2023/02/12 00:07:41;;;;;;;27.40;18.90;;;8.30;99.90;;;;;;4921591;29;20474;-71
2023/02/12 00:10:10;;;;;;;30.67;18.90;;;8.30;99.90;;;;;;4921326;29;20435;-71
2023/02/12 00:12:36;;;;;;;33.53;20.33;;;8.30;99.90;;;;;;4938491;29;20399;-71
2023/02/12 00:15:02;;;;;;;32.00;19.50;;;8.30;99.90;;;;;;4938378;29;20410;-71
2023/02/12 00:17:30;;;;;;;34.17;21.80;;;8.30;99.90;;;;;;4938375;29;20445;-71
2023/02/12 00:19:56;;;;;;;29.87;18.93;;;8.30;99.90;;;;;;4937089;29;20392;-71
2023/02/12 00:22:22;;;;;;;33.90;19.83;;;8.30;99.90;;;;;;4937026;29;20773;-71
2023/02/12 00:24:50;;;;;;;34.30;20.20;;;8.30;99.90;;;;;;4937141;29;20423;-71
2023/02/12 00:27:16;;;;;;;36.53;21.73;;;8.30;99.90;;;;;;4937004;29;20442;-71
2023/02/12 00:29:42;;;;;;;32.27;19.50;;;8.30;99.90;;;;;;4920063;29;20461;-71
2023/02/12 00:32:11;;;;;;;33.17;20.20;;;8.30;99.90;;;;;;4936891;29;20442;-71
2023/02/12 00:34:42;;;;;;;32.63;19.90;;;8.30;99.90;;;;;;4937054;29;20427;-71
2023/02/12 00:37:10;;;;;;;32.30;20.03;;;8.30;99.90;;;;;;4921108;29;20450;-71
2023/02/12 00:39:37;;;;;;;31.00;19.80;;;8.30;99.90;;;;;;4936701;29;20421;-71
2023/02/12 00:42:06;;;;;;;28.47;18.83;;;8.30;99.90;;;;;;4936559;29;20419;-71
2023/02/12 00:44:34;;;;;;;29.77;18.63;;;8.30;99.90;;;;;;4936648;29;20466;-71
2023/02/12 00:47:03;;;;;;;32.03;19.13;;;8.20;99.90;;;;;;4905306;29;20461;-73
2023/02/12 00:49:34;;;;;;;33.07;20.50;;;8.30;99.90;;;;;;4920521;29;20884;-71
2023/02/12 00:52:05;;;;;;;33.87;18.80;;;8.20;99.90;;;;;;4920745;29;20400;-71
2023/02/12 00:54:32;;;;;;;31.70;20.83;;;8.30;99.90;;;;;;4936598;29;20398;-71
2023/02/12 00:56:58;;;;;;;33.17;20.50;;;8.30;99.90;;;;;;4936381;29;20519;-71
2023/02/12 00:59:28;;;;;;;30.67;19.30;;;8.30;99.90;;;;;;4936366;29;20410;-71
2023/02/12 01:01:56;;;;;;;34.30;20.03;;;8.30;99.90;;;;;;4920620;29;20418;-71
2023/02/12 01:04:23;;;;;;;33.20;20.90;;;8.20;99.90;;;;;;4936204;29;20916;-71
2023/02/12 01:06:51;;;;;;;34.93;20.37;;;8.20;99.90;;;;;;4920478;29;20794;-71
2023/02/12 01:09:18;;;;;;;27.90;18.47;;;8.20;99.90;;;;;;4920322;29;20505;-71
2023/02/12 01:11:44;;;;;;;28.93;18.57;;;8.20;99.90;;;;;;4936258;29;20403;-71
2023/02/12 01:14:10;;;;;;;30.93;19.40;;;8.30;99.90;;;;;;4936153;29;20459;-71
2023/02/12 01:16:39;;;;;;;30.27;19.50;;;8.30;99.90;;;;;;4943242;29;20463;-71
2023/02/12 01:19:10;;;;;;;31.40;19.40;;;8.20;99.90;;;;;;4901493;29;20948;-71
2023/02/12 01:21:35;;;;;;;31.53;18.83;;;8.20;99.90;;;;;;4901331;29;20465;-71
2023/02/12 01:24:04;;;;;;;26.20;18.00;;;8.30;99.90;;;;;;4901340;29;20957;-71
2023/02/12 01:26:33;;;;;;;30.53;17.87;;;8.20;99.90;;;;;;4907120;29;20458;-71
2023/02/12 01:29:04;;;;;;;34.83;19.50;;;8.20;99.90;;;;;;4904044;29;20708;-71
2023/02/12 01:31:32;;;;;;;26.90;17.53;;;8.30;99.90;;;;;;4918326;29;20404;-71
2023/02/12 01:33:59;;;;;;;30.97;19.50;;;8.20;99.90;;;;;;4932470;29;20796;-71
2023/02/12 01:36:29;;;;;;;31.97;17.20;;;8.20;99.90;;;;;;4916764;29;20445;-71
2023/02/12 01:39:01;;;;;;;31.17;20.40;;;8.20;99.90;;;;;;4916729;29;20786;-71
2023/02/12 01:41:31;;;;;;;33.43;20.27;;;8.20;99.90;;;;;;4916556;29;20424;-71
2023/02/12 01:44:23;;;;;;;29.60;19.43;;;8.20;99.90;;;;;;4916766;29;20427;-71
2023/02/12 01:46:55;;;;;;;31.30;18.70;;;8.20;99.90;;;;;;4916709;29;20953;-71
2023/02/12 01:49:51;;;;;;;31.07;19.03;;;8.20;99.90;;;;;;4932127;29;20499;-71
2023/02/12 01:52:31;;;;;;;33.37;19.27;;;8.20;99.90;;;;;;4929460;29;20495;-71
2023/02/12 01:55:02;;;;;;;31.37;18.83;;;8.20;99.90;;;;;;4932418;29;20453;-71
2023/02/12 01:57:31;;;;;;;28.23;18.30;;;8.20;99.90;;;;;;4931970;29;20812;-71
2023/02/12 02:00:03;;;;;;;30.13;19.40;;;8.20;99.90;;;;;;4932152;29;20425;-71
2023/02/12 02:02:44;;;;;;;30.40;16.80;;;8.20;99.90;;;;;;4916315;29;20456;-71
2023/02/12 02:05:14;;;;;;;29.37;18.27;;;8.20;99.90;;;;;;4932043;29;20407;-71
2023/02/12 02:07:43;;;;;;;32.40;18.63;;;8.20;99.90;;;;;;4916152;29;20825;-71
2023/02/12 02:10:09;;;;;;;29.30;18.57;;;8.20;99.90;;;;;;4916118;29;20412;-71
2023/02/12 02:15:25;;;;;;;29.97;19.00;;;8.20;99.90;;;;;;4916154;29;20430;-71
2023/02/12 02:17:56;;;;;;;31.00;18.10;;;8.20;99.90;;;;;;4916042;29;20495;-71
2023/02/12 02:20:48;;;;;;;29.13;18.73;;;8.20;99.90;;;;;;4931784;29;20472;-71
2023/02/12 02:23:52;;;;;;;28.50;16.97;;;8.20;99.90;;;;;;4916022;29;20443;-71
2023/02/12 02:27:09;;;;;;;29.43;17.57;;;8.20;99.90;;;;;;4877476;29;20518;-71
2023/02/12 02:30:02;;;;;;;29.20;18.30;;;8.20;99.90;;;;;;4911800;29;20483;-71
2023/02/12 02:32:41;;;;;;;31.53;18.60;;;8.20;99.90;;;;;;4931890;29;20439;-71
2023/02/12 02:35:18;;;;;;;28.17;17.93;;;8.20;99.90;;;;;;4931273;29;20781;-71
2023/02/12 02:38:08;;;;;;;30.13;18.57;;;8.20;99.90;;;;;;4931677;29;20460;-71
2023/02/12 02:40:47;;;;;;;29.73;19.30;;;8.20;99.90;;;;;;4916929;29;20417;-71
2023/02/12 02:43:29;;;;;;;29.47;18.20;;;8.20;99.90;;;;;;4915762;29;20451;-71
2023/02/12 02:46:02;;;;;;;29.73;18.83;;;8.20;99.90;;;;;;4915820;29;20455;-71
2023/02/12 02:48:42;;;;;;;31.40;18.97;;;8.20;99.90;;;;;;4931360;29;21029;-71
2023/02/12 02:51:19;;;;;;;29.03;18.10;;;8.20;99.90;;;;;;4931638;29;20411;-71
2023/02/12 02:53:50;;;;;;;34.10;19.20;;;8.20;99.90;;;;;;4935097;29;20533;-71
2023/02/12 02:56:22;;;;;;;31.13;18.53;;;8.20;99.90;;;;;;4920521;29;20440;-71
2023/02/12 02:59:04;;;;;;;31.40;17.43;;;8.20;99.90;;;;;;4919590;29;20428;-71
2023/02/12 03:01:37;;;;;;;33.57;19.00;;;8.20;99.90;;;;;;4935374;29;20408;-71
2023/02/12 03:04:18;;;;;;;29.87;18.80;;;8.20;99.90;;;;;;4920731;29;20911;-71
2023/02/12 03:07:16;;;;;;;31.37;18.97;;;8.20;99.90;;;;;;4919473;29;20477;-71
2023/02/12 03:09:50;;;;;;;26.50;18.20;;;8.20;99.90;;;;;;4935037;29;20458;-71
2023/02/12 03:12:34;;;;;;;27.63;19.13;;;8.20;99.90;;;;;;4923654;29;20971;-71
2023/02/12 03:15:24;;;;;;;28.10;17.97;;;8.10;99.90;;;;;;4938153;29;20487;-71
2023/02/12 03:17:54;;;;;;;31.07;17.57;;;8.20;99.90;;;;;;4937984;29;20566;-72
2023/02/12 03:20:23;;;;;;;29.03;18.07;;;8.10;99.90;;;;;;4938065;29;20898;-71
2023/02/12 03:23:11;;;;;;;30.13;18.23;;;8.10;99.90;;;;;;4938277;29;20438;-73
2023/02/12 03:26:00;;;;;;;30.93;18.20;;;8.10;99.90;;;;;;4922150;29;20499;-72
2023/02/12 03:28:34;;;;;;;32.67;19.27;;;8.20;99.90;;;;;;4937566;29;20478;-72
2023/02/12 03:31:28;;;;;;;33.00;19.33;;;8.10;99.90;;;;;;4935035;29;20491;-72
2023/02/12 03:34:10;;;;;;;27.53;17.13;;;8.10;99.90;;;;;;4903253;29;20420;-72
2023/02/12 03:36:45;;;;;;;33.77;18.23;;;8.20;99.90;;;;;;4918845;29;20525;-72
2023/02/12 03:39:51;;;;;;;24.77;16.83;;;8.10;99.90;;;;;;4903249;29;20444;-72
2023/02/12 03:42:33;;;;;;;29.67;18.90;;;8.10;99.90;;;;;;4918810;29;20781;-72
2023/02/12 03:45:21;;;;;;;29.37;18.30;;;8.10;99.90;;;;;;4918837;29;20429;-72
2023/02/12 03:47:58;;;;;;;28.07;17.27;;;8.10;99.90;;;;;;4919627;29;20573;-71
2023/02/12 03:50:52;;;;;;;31.40;19.50;;;8.10;99.90;;;;;;4918802;29;20617;-71
2023/02/12 03:53:18;;;;;;;32.63;17.97;;;8.10;99.90;;;;;;4917790;29;20436;-72
2023/02/12 03:55:53;;;;;;;29.30;18.40;;;8.10;99.90;;;;;;4919564;29;20762;-72
2023/02/12 03:58:26;;;;;;;29.67;18.17;;;8.10;99.90;;;;;;4918624;29;20872;-72
2023/02/12 04:00:53;;;;;;;29.00;18.40;;;8.10;99.90;;;;;;4902740;29;20446;-72
2023/02/12 04:03:21;;;;;;;27.70;17.57;;;8.10;99.90;;;;;;4887239;29;20428;-71
2023/02/12 04:05:47;;;;;;;27.00;16.83;;;8.10;99.90;;;;;;4918257;29;20426;-72
2023/02/12 04:08:13;;;;;;;27.50;16.30;;;8.10;99.90;;;;;;4918024;29;20455;-72
2023/02/12 04:11:12;;;;;;;34.23;17.93;;;8.10;99.90;;;;;;4918387;29;20403;-72
2023/02/12 04:13:54;;;;;;;30.50;18.27;;;8.10;99.90;;;;;;4902883;29;20482;-72
2023/02/12 04:16:39;;;;;;;28.50;17.45;;;8.10;99.90;;;;;;4919501;29;20439;-71
2023/02/12 04:19:05;;;;;;;25.63;16.70;;;8.10;99.90;;;;;;4934139;29;20187;-72
2023/02/12 04:21:43;;;;;;;27.57;16.77;;;8.10;99.90;;;;;;4919247;29;20477;-72
2023/02/12 04:24:42;;;;;;;28.90;17.80;;;8.10;99.90;;;;;;4919151;29;20490;-71
2023/02/12 04:27:35;;;;;;;27.30;15.63;;;8.10;99.90;;;;;;4918076;29;20462;-71
2023/02/12 04:30:11;;;;;;;25.60;17.10;;;8.10;99.90;;;;;;4886883;29;20436;-71
2023/02/12 04:32:53;;;;;;;26.60;16.40;;;8.10;99.90;;;;;;4902050;29;20992;-72
2023/02/12 04:35:30;;;;;;;26.53;17.20;;;8.10;99.90;;;;;;4887524;29;20426;-72
2023/02/12 04:38:33;;;;;;;24.60;16.77;;;8.10;99.90;;;;;;4886688;29;20424;-72
2023/02/12 04:40:59;;;;;;;29.13;16.20;;;8.10;99.90;;;;;;4916700;29;20439;-72
2023/02/12 04:43:29;;;;;;;26.70;16.20;;;8.10;99.90;;;;;;4886600;29;20472;-72
2023/02/12 04:45:59;;;;;;;26.90;17.13;;;8.10;99.90;;;;;;4902263;29;20440;-71
2023/02/12 04:48:25;;;;;;;25.80;17.20;;;8.10;99.90;;;;;;4917559;29;20463;-72
2023/02/12 04:50:51;;;;;;;28.10;18.90;;;8.10;99.90;;;;;;4918782;29;20414;-72
2023/02/12 04:53:20;;;;;;;28.70;18.93;;;8.10;99.90;;;;;;4901753;29;20439;-72
2023/02/12 04:55:49;;;;;;;27.23;17.37;;;8.10;99.90;;;;;;4901843;29;20770;-72
2023/02/12 04:58:18;;;;;;;28.27;17.87;;;8.10;99.90;;;;;;4917594;29;20438;-72
2023/02/12 05:00:44;;;;;;;28.00;17.07;;;8.10;99.90;;;;;;4918528;29;20465;-72
2023/02/12 05:03:10;;;;;;;29.37;18.30;;;8.10;99.90;;;;;;4918388;29;20816;-71
2023/02/12 05:05:38;;;;;;;28.40;18.53;;;8.10;99.90;;;;;;4932852;29;20542;-71
2023/02/12 05:08:06;;;;;;;27.30;17.00;;;8.10;99.90;;;;;;4901482;29;21109;-71
2023/02/12 05:10:32;;;;;;;24.17;17.20;;;8.10;99.90;;;;;;4917266;29;20488;-71
2023/02/12 05:12:58;;;;;;;25.60;17.43;;;8.10;99.90;;;;;;4917281;29;20918;-71
2023/02/12 05:15:24;;;;;;;32.37;17.77;;;8.10;99.90;;;;;;4917728;29;20412;-71
2023/02/12 05:17:52;;;;;;;30.47;18.23;;;8.10;99.90;;;;;;4916934;29;20447;-72
2023/02/12 05:20:21;;;;;;;29.43;17.50;;;8.10;99.90;;;;;;4916944;29;20552;-72
2023/02/12 05:22:51;;;;;;;30.00;18.10;;;8.10;99.90;;;;;;4917117;29;20439;-72
2023/02/12 05:25:19;;;;;;;28.13;18.13;;;8.10;99.90;;;;;;4918096;29;20400;-72
2023/02/12 05:27:48;;;;;;;32.33;19.13;;;8.10;99.90;;;;;;4917921;29;20856;-72
2023/02/12 05:30:16;;;;;;;24.43;16.77;;;8.10;99.90;;;;;;4901267;29;20516;-72
2023/02/12 05:32:44;;;;;;;29.80;17.70;;;8.10;99.90;;;;;;4916859;29;20405;-72
2023/02/12 05:35:13;;;;;;;29.77;19.30;;;8.10;99.90;;;;;;4916911;29;20833;-72
2023/02/12 05:37:41;;;;;;;29.83;17.60;;;8.10;99.90;;;;;;4916398;29;20519;-71
2023/02/12 05:40:10;;;;;;;27.20;16.77;;;8.10;99.90;;;;;;4916657;29;20409;-71
2023/02/12 05:42:38;;;;;;;28.90;18.27;;;8.10;99.90;;;;;;4916685;29;20400;-71
2023/02/12 05:45:07;;;;;;;26.97;17.47;;;8.10;99.90;;;;;;4916554;29;20962;-72
2023/02/12 05:47:35;;;;;;;27.57;16.87;;;8.10;99.90;;;;;;4900973;29;20451;-72
2023/02/12 05:50:07;;;;;;;31.43;18.20;;;8.10;99.90;;;;;;4917631;29;20421;-72
2023/02/12 05:52:33;;;;;;;27.87;17.20;;;8.10;99.90;;;;;;4916595;29;20431;-72
2023/02/12 05:54:59;;;;;;;26.73;17.63;;;8.10;99.90;;;;;;4916434;29;20404;-73
2023/02/12 05:57:27;;;;;;;29.43;16.70;;;8.10;99.90;;;;;;4917358;29;20440;-72
2023/02/12 05:59:53;;;;;;;27.63;17.50;;;8.10;99.90;;;;;;4913951;29;20451;-71
2023/02/12 06:02:19;;;;;;;23.33;15.80;;;8.10;99.90;;;;;;4913311;29;20787;-71
2023/02/12 06:04:45;;;;;;;28.80;18.10;;;8.10;99.90;;;;;;4898553;29;20413;-71
2023/02/12 06:07:11;;;;;;;28.63;18.90;;;8.10;99.90;;;;;;4897302;29;20436;-72
2023/02/12 06:09:42;;;;;;;29.80;18.90;;;8.10;99.90;;;;;;4897421;29;20961;-72
2023/02/12 06:12:10;;;;;;;30.07;18.37;;;8.10;99.90;;;;;;4898422;29;20977;-72
2023/02/12 06:14:36;;;;;;;27.50;17.30;;;8.10;99.90;;;;;;4897177;29;20408;-72
2023/02/12 06:17:02;;;;;;;28.30;17.80;;;8.10;99.90;;;;;;4897074;29;20524;-72
2023/02/12 06:19:30;;;;;;;34.03;19.13;;;8.10;99.90;;;;;;4897240;29;20982;-72
2023/02/12 06:21:56;;;;;;;27.60;17.60;;;8.10;99.90;;;;;;4881722;29;20492;-72
2023/02/12 06:24:22;;;;;;;31.10;18.73;;;8.10;99.90;;;;;;4897180;29;20428;-72
2023/02/12 06:26:51;;;;;;;28.03;16.87;;;8.10;99.90;;;;;;4880763;29;20581;-72
2023/02/12 06:29:21;;;;;;;28.23;16.27;;;8.10;99.90;;;;;;4881688;29;20567;-72
2023/02/12 06:31:49;;;;;;;27.20;17.23;;;8.10;99.90;;;;;;4897045;29;20775;-72
2023/02/12 06:34:18;;;;;;;27.90;17.47;;;8.10;99.90;;;;;;4881629;29;20432;-72
2023/02/12 06:36:45;;;;;;;32.00;18.50;;;8.10;99.90;;;;;;4898217;29;20444;-72
2023/02/12 06:39:13;;;;;;;27.17;17.30;;;8.00;99.90;;;;;;4912858;29;20440;-72
2023/02/12 06:41:40;;;;;;;25.30;16.87;;;8.10;99.90;;;;;;4912730;29;20458;-72
2023/02/12 06:44:07;;;;;;;28.23;16.60;;;8.10;99.90;;;;;;4881361;29;20423;-72
2023/02/12 06:46:33;;;;;;;25.50;17.00;;;8.10;99.90;;;;;;4881227;29;20472;-72
2023/02/12 06:49:06;;;;;;;30.57;18.50;;;8.10;99.90;;;;;;4897645;29;20464;-72
2023/02/12 06:51:37;;;;;;;28.17;19.07;;;8.10;99.90;;;;;;4881209;29;20409;-72
2023/02/12 06:54:03;;;;;;;25.83;17.10;;;8.00;99.90;;;;;;4916371;29;20925;-71
2023/02/12 06:56:29;;;;;;;24.40;16.37;;;8.10;99.90;;;;;;4916739;29;20435;-72
2023/02/12 06:58:58;;;;;;;31.77;16.67;;;8.00;99.90;;;;;;4931580;29;20427;-72
2023/02/12 07:01:28;;;;;;;26.73;16.60;;;8.10;99.90;;;;;;4916833;29;20405;-72
2023/02/12 07:04:01;;;;;;;30.23;17.30;;;8.10;99.90;;;;;;4916747;29;20425;-72
2023/02/12 07:06:29;;;;;;;27.87;17.83;;;8.00;99.90;;;;;;4899873;29;20542;-72
2023/02/12 07:08:55;;;;;;;28.47;17.77;;;8.00;99.90;;;;;;4916509;29;20560;-72
2023/02/12 07:11:26;;;;;;;31.00;18.10;;;8.10;99.90;;;;;;4899938;29;20431;-72
2023/02/12 07:13:52;;;;;;;28.20;17.60;;;8.00;99.90;;;;;;4915486;29;20766;-72
2023/02/12 07:16:18;;;;;;;25.67;17.37;;;8.10;99.90;;;;;;4915581;29;20513;-72
2023/02/12 07:18:46;;;;;;;28.50;17.43;;;8.10;99.90;;;;;;4900047;29;20912;-72
2023/02/12 07:21:18;;;;;;;24.80;16.90;;;8.10;99.90;;;;;;4915394;29;20473;-72
2023/02/12 07:23:49;;;;;;;23.47;14.70;;;8.10;99.90;;;;;;4899889;29;20636;-72
2023/02/12 07:26:15;;;;;;;27.50;16.87;;;8.10;99.90;;;;;;4915414;29;20448;-72
2023/02/12 07:28:42;;;;;;;26.83;17.17;;;8.10;99.90;;;;;;4899781;29;20463;-72
2023/02/12 07:31:16;;;;;;;23.87;16.27;;;8.00;99.90;;;;;;4931485;29;20434;-72
2023/02/12 07:33:42;;;;;;;29.83;18.27;;;8.00;99.90;;;;;;4899778;29;20411;-72
2023/02/12 07:36:15;;;;;;;25.23;16.80;;;8.10;99.90;;;;;;4956135;23;20600;-75
2023/02/12 07:38:44;;;;;;;25.47;15.60;;;8.10;99.90;;;;;;4878830;29;20614;-75
2023/02/12 07:41:20;;;;;;;26.70;16.97;;;8.00;99.90;;;;;;4879925;29;20440;-76
2023/02/12 07:43:48;;;;;;;26.87;16.93;;;8.10;99.90;;;;;;4880818;29;20456;-74
2023/02/12 07:46:20;;;;;;;24.50;15.57;;;8.00;99.90;;;;;;4895203;29;20998;-74
2023/02/12 07:48:47;;;;;;;24.70;16.27;;;8.10;99.90;;;;;;4863976;29;20469;-75
2023/02/12 07:51:15;;;;;;;27.43;15.70;;;8.10;99.90;;;;;;4879797;29;20429;-75
2023/02/12 07:53:41;;;;;;;27.40;17.20;;;8.10;99.90;;;;;;4878387;29;20446;-75
2023/02/12 07:56:16;;;;;;;27.93;15.77;;;8.10;99.90;;;;;;4861798;29;20521;-75
2023/02/12 07:58:44;;;;;;;21.73;15.40;;;8.10;99.90;;;;;;4874313;29;20430;-75
2023/02/12 08:01:12;;;;;;;24.07;15.23;;;8.10;99.90;;;;;;4872248;29;20476;-75
2023/02/12 08:03:41;;;;;;;19.33;14.40;;;8.10;99.90;;;;;;4866267;29;20471;-75
2023/02/12 08:06:27;;;;;;;24.97;16.30;;;8.10;99.90;;;;;;4892471;29;20768;-75
2023/02/12 08:08:56;;;;;;;21.83;14.63;;;8.10;99.90;;;;;;4892569;29;20489;-75
2023/02/12 08:11:23;;;;;;;24.90;15.10;;;8.10;99.90;;;;;;4877215;29;20433;-75
2023/02/12 08:13:50;;;;;;;24.93;15.63;;;8.10;99.90;;;;;;4873407;29;20880;-75
2023/02/12 08:16:19;;;;;;;29.83;15.60;;;8.10;99.90;;;;;;4892564;29;20485;-75
2023/02/12 08:18:48;;;;;;;24.07;16.40;;;8.10;99.90;;;;;;4892898;29;20426;-75
2023/02/12 08:21:17;;;;;;;24.60;16.73;;;8.10;99.90;;;;;;4881334;29;20435;-75
2023/02/12 08:23:49;;;;;;;25.67;15.70;;;8.10;99.90;;;;;;4861488;29;20457;-75
2023/02/12 08:26:29;;;;;;;24.80;15.07;;;8.10;99.90;;;;;;4876641;29;20458;-75
2023/02/12 08:29:01;;;;;;;23.90;16.13;;;8.10;99.90;;;;;;4877522;29;20521;-75
2023/02/12 08:31:37;;;;;;;24.53;16.87;;;8.10;99.90;;;;;;4877034;29;20448;-75
2023/02/12 08:34:14;;;;;;;21.83;15.30;;;8.10;99.90;;;;;;4875893;29;20481;-75
2023/02/12 08:36:40;;;;;;;25.83;16.37;;;8.10;99.90;;;;;;4877557;29;20463;-75
2023/02/12 08:39:09;;;;;;;23.93;15.57;;;8.10;99.90;;;;;;4843248;29;20495;-75
2023/02/12 08:41:36;;;;;;;27.60;16.33;;;8.10;99.90;;;;;;4876787;29;20445;-75
2023/02/12 08:44:03;;;;;;;24.50;16.73;;;8.10;99.90;;;;;;4883341;29;20927;-75
2023/02/12 08:46:33;;;;;;;25.90;16.87;;;8.10;99.90;;;;;;4892387;29;20895;-75
2023/02/12 08:49:08;;;;;;;28.57;17.47;;;8.10;99.90;;;;;;4877206;29;20565;-75
2023/02/12 08:51:41;;;;;;;25.97;16.13;;;8.10;99.90;;;;;;4891327;29;20518;-75
2023/02/12 08:54:11;;;;;;;24.93;16.50;;;8.20;99.90;;;;;;4875362;29;20439;-75
2023/02/12 08:56:41;;;;;;;26.60;16.03;;;8.10;99.90;;;;;;4876504;29;20446;-75
2023/02/12 08:59:07;;;;;;;28.40;16.23;;;8.10;99.90;;;;;;4877600;29;20512;-75
2023/02/12 09:01:37;;;;;;;29.83;16.43;;;8.10;99.90;;;;;;4875468;29;20440;-75
2023/02/12 09:04:07;;;;;;;25.80;16.20;;;8.20;99.90;;;;;;4876243;29;20514;-75
2023/02/12 09:06:34;;;;;;;26.03;15.90;;;8.20;99.90;;;;;;4875981;29;20453;-75
2023/02/12 09:09:02;;;;;;;26.53;15.90;;;8.20;99.90;;;;;;4875858;29;20608;-75
2023/02/12 09:11:32;;;;;;;26.53;16.90;;;8.20;99.90;;;;;;4876247;29;20525;-75
2023/02/12 09:14:06;;;;;;;29.07;16.27;;;8.20;99.90;;;;;;4875671;29;20425;-75
2023/02/12 09:16:34;;;;;;;27.77;16.90;;;8.20;99.90;;;;;;4875930;29;20476;-75
2023/02/12 09:19:00;;;;;;;26.80;17.40;;;8.20;99.90;;;;;;4875290;29;20427;-75
2023/02/12 09:21:26;;;;;;;25.73;17.23;;;8.20;99.90;;;;;;4891433;29;20407;-75
2023/02/12 09:23:54;;;;;;;28.00;18.47;;;8.20;99.90;;;;;;4887125;29;20517;-75
2023/02/12 09:26:25;;;;;;;27.23;18.40;;;8.20;99.90;;;;;;4866746;29;20537;-75
2023/02/12 09:28:52;;;;;;;30.37;17.40;;;8.20;99.90;;;;;;4890935;29;20461;-75
2023/02/12 09:31:21;;;;;;;28.70;18.53;;;8.20;99.90;;;;;;4891130;29;20437;-75
2023/02/12 09:33:50;;;;;;;30.40;17.40;;;8.30;99.90;;;;;;4872757;29;20446;-75
2023/02/12 09:36:16;;;;;;;28.57;18.10;;;8.30;99.90;;;;;;4872790;29;20485;-75
2023/02/12 09:38:44;;;;;;;30.47;18.70;;;8.30;99.90;;;;;;4862597;29;20442;-75
2023/02/12 09:41:52;;;;;;;31.40;19.33;;;8.30;99.90;;;;;;4859848;29;20424;-75
2023/02/12 09:44:43;;;;;;;31.97;18.83;;;8.30;99.90;;;;;;4890947;29;20502;-75
2023/02/12 09:47:24;;;;;;;31.80;18.43;;;8.30;99.90;;;;;;4859582;29;20449;-75
2023/02/12 09:50:28;;;;;;;34.13;19.67;;;8.30;99.90;;;;;;4856702;29;20470;-74
2023/02/12 09:52:56;;;;;;;28.07;17.90;;;8.30;99.90;;;;;;4875440;29;20446;-75
2023/02/12 09:55:28;;;;;;;28.53;18.33;;;8.30;99.90;;;;;;4876424;29;20423;-75
2023/02/12 09:57:54;;;;;;;27.93;17.50;;;8.30;99.90;;;;;;4860005;29;20529;-75
2023/02/12 10:00:20;;;;;;;31.10;19.93;;;8.30;99.90;;;;;;4873487;29;20524;-74
2023/02/12 10:02:54;;;;;;;33.70;20.00;;;8.30;99.90;;;;;;4875056;29;20415;-75
2023/02/12 10:05:33;;;;;;;30.60;19.00;;;8.40;99.90;;;;;;4876505;29;20425;-75
2023/02/12 10:08:02;;;;;;;31.27;18.90;;;8.40;99.90;;;;;;4875183;29;20904;-76
2023/02/12 10:10:34;;;;;;;28.63;18.10;;;8.40;99.90;;;;;;4874938;29;20516;-77
2023/02/12 10:13:24;;;;;;;33.23;20.10;;;8.40;99.90;;;;;;4859516;29;20421;-76
2023/02/12 10:16:19;;;;;;;31.83;19.47;;;8.40;99.90;;;;;;4871742;29;21019;-77
2023/02/12 10:18:56;;;;;;;30.60;19.13;;;8.40;99.90;;;;;;4877321;29;20469;-76
2023/02/12 10:21:31;;;;;;;31.13;19.27;;;8.40;99.90;;;;;;4890447;29;20435;-76
2023/02/12 10:24:42;;;;;;;31.43;19.43;;;8.50;99.90;;;;;;4872110;29;20462;-76
2023/02/12 10:27:18;;;;;;;31.30;18.50;;;8.50;99.90;;;;;;4874918;29;20466;-76
2023/02/12 10:29:47;;;;;;;31.30;19.67;;;8.50;99.90;;;;;;4874652;29;20449;-76
2023/02/12 10:32:34;;;;;;;36.50;21.13;;;8.50;99.90;;;;;;4874316;29;20445;-76
2023/02/12 10:35:11;;;;;;;35.13;20.33;;;8.50;99.90;;;;;;4875204;29;20423;-75
2023/02/12 10:37:42;;;;;;;31.97;20.83;;;8.50;99.90;;;;;;4856047;29;20462;-76
2023/02/12 10:40:28;;;;;;;30.70;19.93;;;8.50;99.90;;;;;;4865832;29;20954;-76
2023/02/12 10:42:56;;;;;;;31.70;19.93;;;8.60;99.90;;;;;;4874750;29;20925;-76
2023/02/12 10:45:36;;;;;;;32.53;20.70;;;8.60;99.90;;;;;;4887855;29;20758;-75
2023/02/12 10:48:20;;;;;;;30.70;20.77;;;8.60;99.90;;;;;;4874929;29;20473;-75
2023/02/12 10:51:07;;;;;;;33.50;20.50;;;8.60;99.90;;;;;;4886363;29;20443;-75
2023/02/12 10:53:36;;;;;;;31.00;18.93;;;8.60;99.90;;;;;;4886895;29;20414;-75
2023/02/12 10:56:12;;;;;;;31.77;19.43;;;8.60;99.90;;;;;;4882091;29;20467;-76
2023/02/12 10:58:49;;;;;;;32.33;21.37;;;8.60;99.90;;;;;;4890417;29;20454;-76
2023/02/12 11:01:20;;;;;;;34.90;20.50;;;8.60;99.90;;;;;;4856450;29;20497;-76
2023/02/12 11:03:47;;;;;;;32.07;19.23;;;8.70;99.90;;;;;;4859543;29;20427;-76
2023/02/12 11:06:19;;;;;;;34.53;21.67;;;8.70;99.90;;;;;;4859038;29;20461;-76
2023/02/12 11:08:46;;;;;;;34.60;21.00;;;8.70;99.90;;;;;;4889924;29;20809;-76
2023/02/12 11:11:25;;;;;;;32.57;20.57;;;8.70;99.90;;;;;;4858997;29;20437;-76
2023/02/12 11:13:59;;;;;;;35.00;19.83;;;8.70;99.90;;;;;;4859007;29;20949;-76
2023/02/12 11:16:35;;;;;;;33.20;20.53;;;8.70;99.90;;;;;;4859694;29;20441;-76
2023/02/12 11:19:06;;;;;;;33.37;22.00;;;8.70;99.90;;;;;;4879394;29;20515;-76
2023/02/12 11:21:33;;;;;;;33.30;20.60;;;8.80;99.90;;;;;;4879445;29;20774;-76
2023/02/12 11:24:27;;;;;;;31.50;21.23;;;8.80;99.90;;;;;;4878946;29;20437;-76
2023/02/12 11:27:12;;;;;;;32.17;20.40;;;8.80;99.90;;;;;;4879239;29;20465;-76
2023/02/12 11:29:43;;;;;;;34.40;19.87;;;8.80;99.90;;;;;;4878952;29;20459;-76
2023/02/12 11:32:16;;;;;;;29.70;19.70;;;8.80;99.90;;;;;;4862747;29;20434;-76
2023/02/12 11:34:42;;;;;;;32.10;20.50;;;8.80;99.90;;;;;;4877783;29;20427;-76
2023/02/12 11:37:19;;;;;;;34.17;21.27;;;8.80;99.90;;;;;;4862639;29;20481;-76
2023/02/12 11:39:50;;;;;;;32.80;20.93;;;8.90;99.90;;;;;;4879460;29;20434;-76
2023/02/12 11:42:24;;;;;;;29.40;19.50;;;8.90;99.90;;;;;;4879221;29;20422;-74
2023/02/12 11:44:58;;;;;;;36.13;21.13;;;8.90;99.90;;;;;;4877711;29;20516;-75
2023/02/12 11:47:24;;;;;;;29.47;19.60;;;8.90;99.90;;;;;;4862244;29;20987;-74
2023/02/12 11:49:57;;;;;;;30.90;19.30;;;8.90;99.90;;;;;;4892825;29;20463;-74
2023/02/12 11:52:29;;;;;;;30.37;19.80;;;8.90;99.90;;;;;;4877825;29;20507;-75
2023/02/12 11:55:02;;;;;;;35.70;20.77;;;8.90;99.90;;;;;;4877635;29;20995;-76
2023/02/12 11:57:44;;;;;;;31.40;19.93;;;8.90;99.90;;;;;;4879738;29;20468;-76
2023/02/12 12:00:15;;;;;;;33.20;21.10;;;8.90;99.90;;;;;;4879816;29;20772;-77
2023/02/12 12:03:00;;;;;;;33.90;21.33;;;8.90;99.90;;;;;;4894961;29;20462;-78
2023/02/12 12:05:34;;;;;;;30.80;19.00;;;9.00;99.90;;;;;;4876794;29;21031;-77
2023/02/12 12:08:06;;;;;;;30.43;18.60;;;9.00;99.90;;;;;;4865243;29;21106;-75
2023/02/12 12:10:44;;;;;;;30.30;20.10;;;9.00;99.90;;;;;;4859160;29;20427;-73
2023/02/12 12:13:25;;;;;;;33.30;18.70;;;9.00;99.90;;;;;;4864930;29;20460;-77
2023/02/12 12:22:23;;;;;;;29.77;19.67;;;9.00;99.90;;;;;;4863792;29;20448;-78
2023/02/12 12:25:23;;;;;;;27.90;17.67;;;9.00;99.90;;;;;;4896068;29;20427;-78
2023/02/12 12:28:13;;;;;;;28.57;18.23;;;9.00;99.90;;;;;;4881744;29;20463;-77
2023/02/12 12:30:58;;;;;;;31.10;18.83;;;9.10;99.90;;;;;;4877858;29;20434;-77
2023/02/12 12:33:29;;;;;;;29.97;18.73;;;9.00;99.90;;;;;;4864696;29;20797;-76
2023/02/12 12:36:14;;;;;;;30.80;19.57;;;9.10;99.90;;;;;;4862883;29;20466;-77
2023/02/12 12:39:03;;;;;;;28.57;18.17;;;9.10;99.90;;;;;;4877178;29;20504;-73
2023/02/12 12:41:47;;;;;;;29.93;19.27;;;9.10;99.90;;;;;;4865976;29;20445;-72
2023/02/12 12:44:19;;;;;;;26.30;16.90;;;9.10;99.90;;;;;;4893856;29;20457;-74
2023/02/12 12:47:12;;;;;;;36.10;18.80;;;9.10;99.90;;;;;;4878490;29;20472;-73
2023/02/12 12:49:53;;;;;;;28.73;18.80;;;9.10;99.90;;;;;;4879994;29;20536;-74
2023/02/12 12:52:51;;;;;;;29.30;17.57;;;9.10;99.90;;;;;;4882054;29;20544;-74
2023/02/12 12:55:55;;;;;;;31.67;18.53;;;9.10;99.90;;;;;;4874344;29;20530;-73
2023/02/12 12:59:06;;;;;;;29.80;19.10;;;9.20;99.90;;;;;;4877343;29;20445;-76
2023/02/12 13:02:23;;;;;;;27.30;17.77;;;9.10;99.90;;;;;;4845427;29;20620;-77
2023/02/12 13:05:27;;;;;;;26.50;16.73;;;9.20;99.90;;;;;;4863345;29;20419;-77
2023/02/12 13:08:42;;;;;;;32.37;18.80;;;9.20;99.90;;;;;;4878830;29;20455;-77
2023/02/12 13:11:31;;;;;;;24.70;16.40;;;9.20;99.90;;;;;;4864685;29;20862;-77
2023/02/12 13:14:26;;;;;;;27.30;16.33;;;9.20;99.90;;;;;;4894352;29;20434;-77
2023/02/12 13:17:12;;;;;;;29.33;20.03;;;9.20;99.90;;;;;;4895190;29;20435;-77
2023/02/12 13:19:55;;;;;;;26.57;17.63;;;9.20;99.90;;;;;;4879116;29;20994;-77